sensor_id;sensor_type;location;lat;lon;timestamp;pressure;altitude;pressure_sealevel;temperature;humidity
39487;BME280;25173;50.430;18.926;2022-12-28T00:01:41;99149.25;;;7.15;61.46
39487;BME280;25173;50.430;18.926;2022-12-28T00:04:42;99147.38;;;7.15;61.21
39487;BME280;25173;50.430;18.926;2022-12-28T00:07:43;99140.69;;;7.18;61.24
39487;BME280;25173;50.430;18.926;2022-12-28T00:10:44;99130.81;;;7.23;61.14
39487;BME280;25173;50.430;18.926;2022-12-28T00:13:44;99131.84;;;7.22;61.14
39487;BME280;25173;50.430;18.926;2022-12-28T00:16:45;99136.81;;;7.25;61.16
39487;BME280;25173;50.430;18.926;2022-12-28T00:19:46;99135.53;;;7.28;61.20
39487;BME280;25173;50.430;18.926;2022-12-28T00:22:46;99138.84;;;7.30;61.01
39487;BME280;25173;50.430;18.926;2022-12-28T00:25:47;99134.47;;;7.29;61.05
39487;BME280;25173;50.430;18.926;2022-12-28T00:28:48;99138.44;;;7.26;61.13
39487;BME280;25173;50.430;18.926;2022-12-28T00:31:49;99146.59;;;7.26;61.09
39487;BME280;25173;50.430;18.926;2022-12-28T00:34:49;99147.66;;;7.25;61.15
39487;BME280;25173;50.430;18.926;2022-12-28T00:37:50;99137.06;;;7.24;61.23
39487;BME280;25173;50.430;18.926;2022-12-28T00:40:51;99130.56;;;7.25;61.09
39487;BME280;25173;50.430;18.926;2022-12-28T00:43:51;99133.13;;;7.20;60.91
39487;BME280;25173;50.430;18.926;2022-12-28T00:46:52;99143.00;;;7.14;60.96
39487;BME280;25173;50.430;18.926;2022-12-28T00:49:53;99138.81;;;7.00;60.65
39487;BME280;25173;50.430;18.926;2022-12-28T00:52:53;99140.63;;;6.88;61.02
39487;BME280;25173;50.430;18.926;2022-12-28T00:55:54;99143.63;;;6.80;61.09
39487;BME280;25173;50.430;18.926;2022-12-28T00:58:56;99138.94;;;6.69;61.00
39487;BME280;25173;50.430;18.926;2022-12-28T01:01:57;99149.50;;;6.58;61.25
39487;BME280;25173;50.430;18.926;2022-12-28T01:04:58;99147.91;;;6.51;61.17
39487;BME280;25173;50.430;18.926;2022-12-28T01:07:58;99151.94;;;6.42;61.29
39487;BME280;25173;50.430;18.926;2022-12-28T01:10:59;99143.28;;;6.33;61.45
39487;BME280;25173;50.430;18.926;2022-12-28T01:14:00;99144.59;;;6.24;61.51
39487;BME280;25173;50.430;18.926;2022-12-28T01:17:03;99143.47;;;6.13;61.73
39487;BME280;25173;50.430;18.926;2022-12-28T01:20:05;99151.84;;;6.05;61.90
39487;BME280;25173;50.430;18.926;2022-12-28T01:23:06;99152.28;;;6.02;61.96
39487;BME280;25173;50.430;18.926;2022-12-28T01:26:07;99150.47;;;5.96;61.99
39487;BME280;25173;50.430;18.926;2022-12-28T01:29:08;99150.69;;;5.95;62.04
39487;BME280;25173;50.430;18.926;2022-12-28T01:32:09;99147.59;;;5.91;62.01
39487;BME280;25173;50.430;18.926;2022-12-28T01:35:09;99143.03;;;5.85;62.56
39487;BME280;25173;50.430;18.926;2022-12-28T01:38:10;99139.94;;;5.81;62.23
39487;BME280;25173;50.430;18.926;2022-12-28T01:41:13;99142.84;;;5.80;62.33
39487;BME280;25173;50.430;18.926;2022-12-28T01:47:25;99138.38;;;5.67;62.49
39487;BME280;25173;50.430;18.926;2022-12-28T01:50:28;99134.22;;;5.65;62.71
39487;BME280;25173;50.430;18.926;2022-12-28T01:53:29;99124.72;;;5.62;62.57
39487;BME280;25173;50.430;18.926;2022-12-28T01:56:30;99121.81;;;5.57;62.73
39487;BME280;25173;50.430;18.926;2022-12-28T01:59:32;99121.66;;;5.52;62.84
39487;BME280;25173;50.430;18.926;2022-12-28T02:02:36;99115.03;;;5.48;62.93
39487;BME280;25173;50.430;18.926;2022-12-28T02:05:40;99110.69;;;5.47;62.88
39487;BME280;25173;50.430;18.926;2022-12-28T02:09:18;99111.53;;;5.41;62.98
39487;BME280;25173;50.430;18.926;2022-12-28T02:12:20;99099.13;;;5.33;63.22
39487;BME280;25173;50.430;18.926;2022-12-28T02:15:21;99099.13;;;5.33;63.26
39487;BME280;25173;50.430;18.926;2022-12-28T02:18:22;99088.34;;;5.33;63.21
39487;BME280;25173;50.430;18.926;2022-12-28T02:25:40;99075.28;;;5.24;63.14
39487;BME280;25173;50.430;18.926;2022-12-28T02:38:56;99050.66;;;5.07;63.38
39487;BME280;25173;50.430;18.926;2022-12-28T02:41:59;99046.75;;;5.03;63.43
39487;BME280;25173;50.430;18.926;2022-12-28T02:45:00;99054.88;;;5.03;63.58
39487;BME280;25173;50.430;18.926;2022-12-28T02:48:19;99053.00;;;5.03;63.51
39487;BME280;25173;50.430;18.926;2022-12-28T02:54:50;99059.22;;;4.97;63.50
39487;BME280;25173;50.430;18.926;2022-12-28T03:08:16;99041.69;;;4.75;64.05
39487;BME280;25173;50.430;18.926;2022-12-28T03:15:04;99042.16;;;4.72;64.40
39487;BME280;25173;50.430;18.926;2022-12-28T03:18:10;99050.03;;;4.67;64.20
39487;BME280;25173;50.430;18.926;2022-12-28T03:21:31;99050.03;;;4.67;64.21
39487;BME280;25173;50.430;18.926;2022-12-28T03:24:55;99039.25;;;4.67;64.50
39487;BME280;25173;50.430;18.926;2022-12-28T03:28:18;99031.81;;;4.62;64.31
39487;BME280;25173;50.430;18.926;2022-12-28T03:31:40;99038.44;;;4.60;64.61
39487;BME280;25173;50.430;18.926;2022-12-28T03:34:45;99035.16;;;4.58;64.51
39487;BME280;25173;50.430;18.926;2022-12-28T03:37:52;99032.88;;;4.55;64.57
39487;BME280;25173;50.430;18.926;2022-12-28T03:41:08;99014.00;;;4.55;64.64
39487;BME280;25173;50.430;18.926;2022-12-28T03:44:20;99017.72;;;4.54;64.76
39487;BME280;25173;50.430;18.926;2022-12-28T03:47:25;99027.69;;;4.53;64.73
39487;BME280;25173;50.430;18.926;2022-12-28T03:50:29;99012.16;;;4.49;64.67
39487;BME280;25173;50.430;18.926;2022-12-28T03:53:37;99003.25;;;4.48;64.59
39487;BME280;25173;50.430;18.926;2022-12-28T03:56:50;99009.47;;;4.49;64.82
39487;BME280;25173;50.430;18.926;2022-12-28T03:59:52;99009.28;;;4.44;64.88
39487;BME280;25173;50.430;18.926;2022-12-28T04:02:53;99002.63;;;4.46;64.78
39487;BME280;25173;50.430;18.926;2022-12-28T04:05:54;98998.72;;;4.42;64.86
39487;BME280;25173;50.430;18.926;2022-12-28T04:08:55;99000.41;;;4.37;64.92
39487;BME280;25173;50.430;18.926;2022-12-28T04:11:58;98996.63;;;4.38;65.09
39487;BME280;25173;50.430;18.926;2022-12-28T04:15:17;98973.44;;;4.37;64.88
39487;BME280;25173;50.430;18.926;2022-12-28T04:18:17;98971.78;;;4.36;64.89
39487;BME280;25173;50.430;18.926;2022-12-28T04:21:18;98980.69;;;4.36;65.00
39487;BME280;25173;50.430;18.926;2022-12-28T04:24:19;98977.16;;;4.36;64.96
39487;BME280;25173;50.430;18.926;2022-12-28T04:27:20;98987.50;;;4.39;64.76
39487;BME280;25173;50.430;18.926;2022-12-28T04:30:23;98978.19;;;4.35;64.75
39487;BME280;25173;50.430;18.926;2022-12-28T04:33:25;98980.91;;;4.35;64.79
39487;BME280;25173;50.430;18.926;2022-12-28T04:36:26;98964.31;;;4.31;65.03
39487;BME280;25173;50.430;18.926;2022-12-28T04:39:27;98967.63;;;4.33;65.07
39487;BME280;25173;50.430;18.926;2022-12-28T04:42:28;98964.31;;;4.31;64.79
39487;BME280;25173;50.430;18.926;2022-12-28T04:45:28;98965.59;;;4.28;65.03
39487;BME280;25173;50.430;18.926;2022-12-28T04:48:29;98957.88;;;4.32;65.07
39487;BME280;25173;50.430;18.926;2022-12-28T04:51:31;98960.38;;;4.34;65.06
39487;BME280;25173;50.430;18.926;2022-12-28T04:54:31;98954.75;;;4.35;64.98
39487;BME280;25173;50.430;18.926;2022-12-28T04:57:32;98950.00;;;4.37;64.92
39487;BME280;25173;50.430;18.926;2022-12-28T05:00:33;98943.34;;;4.33;64.99
39487;BME280;25173;50.430;18.926;2022-12-28T05:03:35;98946.47;;;4.37;65.25
39487;BME280;25173;50.430;18.926;2022-12-28T05:06:35;98949.75;;;4.39;65.05
39487;BME280;25173;50.430;18.926;2022-12-28T05:09:36;98941.88;;;4.44;65.06
39487;BME280;25173;50.430;18.926;2022-12-28T05:12:37;98935.44;;;4.38;64.87
39487;BME280;25173;50.430;18.926;2022-12-28T05:15:37;98932.31;;;4.41;65.12
39487;BME280;25173;50.430;18.926;2022-12-28T05:18:38;98933.53;;;4.45;64.98
39487;BME280;25173;50.430;18.926;2022-12-28T05:21:39;98934.97;;;4.48;64.94
39487;BME280;25173;50.430;18.926;2022-12-28T05:24:39;98930.22;;;4.50;64.83
39487;BME280;25173;50.430;18.926;2022-12-28T05:27:40;98927.69;;;4.55;64.85
39487;BME280;25173;50.430;18.926;2022-12-28T05:30:41;98924.31;;;4.59;64.66
39487;BME280;25173;50.430;18.926;2022-12-28T05:33:42;98923.06;;;4.62;64.55
39487;BME280;25173;50.430;18.926;2022-12-28T05:36:43;98917.66;;;4.62;64.44
39487;BME280;25173;50.430;18.926;2022-12-28T05:39:43;98915.13;;;4.67;64.58
39487;BME280;25173;50.430;18.926;2022-12-28T05:42:44;98916.38;;;4.71;64.45
39487;BME280;25173;50.430;18.926;2022-12-28T05:45:45;98909.31;;;4.70;64.31
39487;BME280;25173;50.430;18.926;2022-12-28T05:48:46;98909.09;;;4.72;64.37
39487;BME280;25173;50.430;18.926;2022-12-28T05:51:50;98914.88;;;4.75;64.35
39487;BME280;25173;50.430;18.926;2022-12-28T05:54:53;98900.41;;;4.69;64.26
39487;BME280;25173;50.430;18.926;2022-12-28T05:57:54;98902.72;;;4.66;64.37
39487;BME280;25173;50.430;18.926;2022-12-28T06:04:07;98909.78;;;4.60;64.36
39487;BME280;25173;50.430;18.926;2022-12-28T06:07:11;98893.19;;;4.63;64.33
39487;BME280;25173;50.430;18.926;2022-12-28T06:10:11;98892.97;;;4.65;64.39
39487;BME280;25173;50.430;18.926;2022-12-28T06:13:12;98890.84;;;4.67;64.34
39487;BME280;25173;50.430;18.926;2022-12-28T06:16:16;98895.41;;;4.73;64.36
39487;BME280;25173;50.430;18.926;2022-12-28T06:19:16;98883.94;;;4.78;64.17
39487;BME280;25173;50.430;18.926;2022-12-28T06:22:17;98888.09;;;4.80;64.20
39487;BME280;25173;50.430;18.926;2022-12-28T06:25:18;98887.63;;;4.83;64.06
39487;BME280;25173;50.430;18.926;2022-12-28T06:28:19;98876.41;;;4.86;63.90
39487;BME280;25173;50.430;18.926;2022-12-28T06:31:28;98880.31;;;4.90;63.88
39487;BME280;25173;50.430;18.926;2022-12-28T06:34:30;98876.19;;;4.88;63.52
39487;BME280;25173;50.430;18.926;2022-12-28T06:37:36;98872.06;;;4.85;63.80
39487;BME280;25173;50.430;18.926;2022-12-28T06:40:37;98873.94;;;4.85;63.79
39487;BME280;25173;50.430;18.926;2022-12-28T06:43:38;98872.06;;;4.85;63.74
39487;BME280;25173;50.430;18.926;2022-12-28T06:46:39;98876.19;;;4.88;63.73
39487;BME280;25173;50.430;18.926;2022-12-28T06:49:40;98876.56;;;4.91;63.65
39487;BME280;25173;50.430;18.926;2022-12-28T06:52:40;98873.66;;;4.93;63.54
39487;BME280;25173;50.430;18.926;2022-12-28T06:55:41;98873.81;;;4.98;63.48
39487;BME280;25173;50.430;18.926;2022-12-28T06:58:42;98873.59;;;4.99;63.42
39487;BME280;25173;50.430;18.926;2022-12-28T07:01:43;98876.09;;;5.01;63.51
39487;BME280;25173;50.430;18.926;2022-12-28T07:04:45;98875.41;;;5.05;63.18
39487;BME280;25173;50.430;18.926;2022-12-28T07:07:45;98874.38;;;5.06;63.37
39487;BME280;25173;50.430;18.926;2022-12-28T07:10:46;98870.47;;;5.02;63.30
39487;BME280;25173;50.430;18.926;2022-12-28T07:13:47;98873.75;;;5.04;63.29
39487;BME280;25173;50.430;18.926;2022-12-28T07:16:48;98868.53;;;5.10;63.38
39487;BME280;25173;50.430;18.926;2022-12-28T07:19:49;98867.50;;;5.11;63.33
39487;BME280;25173;50.430;18.926;2022-12-28T07:22:51;98859.16;;;5.12;63.43
39487;BME280;25173;50.430;18.926;2022-12-28T07:25:52;98855.34;;;5.20;63.14
39487;BME280;25173;50.430;18.926;2022-12-28T07:28:54;98860.91;;;5.25;63.39
39487;BME280;25173;50.430;18.926;2022-12-28T07:31:56;98857.75;;;5.28;63.22
39487;BME280;25173;50.430;18.926;2022-12-28T07:34:57;98845.47;;;5.32;63.14
39487;BME280;25173;50.430;18.926;2022-12-28T07:37:57;98856.84;;;5.34;63.09
39487;BME280;25173;50.430;18.926;2022-12-28T07:41:13;98848.75;;;5.34;63.01
39487;BME280;25173;50.430;18.926;2022-12-28T07:44:13;98849.00;;;5.32;63.10
39487;BME280;25173;50.430;18.926;2022-12-28T07:47:14;98845.63;;;5.37;63.32
39487;BME280;25173;50.430;18.926;2022-12-28T07:50:15;98842.19;;;5.48;63.20
39487;BME280;25173;50.430;18.926;2022-12-28T07:53:15;98846.22;;;5.57;63.07
39487;BME280;25173;50.430;18.926;2022-12-28T07:56:17;98853.19;;;5.65;62.97
39487;BME280;25173;50.430;18.926;2022-12-28T07:59:18;98847.50;;;5.73;62.98
39487;BME280;25173;50.430;18.926;2022-12-28T08:02:18;98840.97;;;5.80;62.76
39487;BME280;25173;50.430;18.926;2022-12-28T08:05:19;98836.72;;;5.91;62.66
39487;BME280;25173;50.430;18.926;2022-12-28T08:08:20;98844.13;;;5.96;62.49
39487;BME280;25173;50.430;18.926;2022-12-28T08:11:31;98843.91;;;5.97;62.27
39487;BME280;25173;50.430;18.926;2022-12-28T08:15:02;98851.31;;;6.02;62.27
39487;BME280;25173;50.430;18.926;2022-12-28T08:18:03;98852.06;;;6.09;62.20
39487;BME280;25173;50.430;18.926;2022-12-28T08:21:12;98843.06;;;6.15;62.18
39487;BME280;25173;50.430;18.926;2022-12-28T08:24:16;98846.34;;;6.17;61.97
39487;BME280;25173;50.430;18.926;2022-12-28T08:27:17;98838.84;;;6.19;61.96
39487;BME280;25173;50.430;18.926;2022-12-28T08:30:18;98842.13;;;6.21;61.99
39487;BME280;25173;50.430;18.926;2022-12-28T08:33:18;98839.78;;;6.24;61.77
39487;BME280;25173;50.430;18.926;2022-12-28T08:36:20;98838.53;;;6.39;62.08
39487;BME280;25173;50.430;18.926;2022-12-28T08:39:21;98844.56;;;6.52;61.64
39487;BME280;25173;50.430;18.926;2022-12-28T08:42:21;98841.53;;;6.60;61.53
39487;BME280;25173;50.430;18.926;2022-12-28T08:45:22;98842.63;;;6.71;61.54
39487;BME280;25173;50.430;18.926;2022-12-28T08:48:23;98843.34;;;6.78;61.19
39487;BME280;25173;50.430;18.926;2022-12-28T08:54:26;98850.31;;;6.74;60.89
39487;BME280;25173;50.430;18.926;2022-12-28T08:57:27;98843.81;;;6.75;60.94
39487;BME280;25173;50.430;18.926;2022-12-28T09:00:27;98855.00;;;6.79;60.96
39487;BME280;25173;50.430;18.926;2022-12-28T09:03:28;98853.84;;;6.86;60.80
39487;BME280;25173;50.430;18.926;2022-12-28T09:06:33;98861.03;;;6.92;60.59
39487;BME280;25173;50.430;18.926;2022-12-28T09:09:34;98842.69;;;6.94;60.43
39487;BME280;25173;50.430;18.926;2022-12-28T09:12:35;98844.22;;;7.02;60.55
39487;BME280;25173;50.430;18.926;2022-12-28T09:15:35;98846.44;;;7.05;60.01
39487;BME280;25173;50.430;18.926;2022-12-28T09:18:37;98839.84;;;7.13;60.15
39487;BME280;25173;50.430;18.926;2022-12-28T09:21:38;98829.38;;;7.16;59.88
39487;BME280;25173;50.430;18.926;2022-12-28T09:24:39;98843.53;;;7.18;59.69
39487;BME280;25173;50.430;18.926;2022-12-28T09:27:39;98842.09;;;7.27;59.78
39487;BME280;25173;50.430;18.926;2022-12-28T09:30:40;98836.81;;;7.32;59.60
39487;BME280;25173;50.430;18.926;2022-12-28T09:33:41;98841.50;;;7.37;59.33
39487;BME280;25173;50.430;18.926;2022-12-28T09:37:01;98843.03;;;7.45;59.42
39487;BME280;25173;50.430;18.926;2022-12-28T09:40:02;98840.19;;;7.51;59.37
39487;BME280;25173;50.430;18.926;2022-12-28T09:43:04;98840.56;;;7.55;58.99
39487;BME280;25173;50.430;18.926;2022-12-28T09:46:04;98844.41;;;7.59;58.87
39487;BME280;25173;50.430;18.926;2022-12-28T09:49:11;98850.66;;;7.59;58.70
39487;BME280;25173;50.430;18.926;2022-12-28T09:55:15;98830.72;;;7.65;58.90
39487;BME280;25173;50.430;18.926;2022-12-28T09:58:17;98835.47;;;7.70;58.58
39487;BME280;25173;50.430;18.926;2022-12-28T10:01:18;98829.53;;;7.73;58.38
39487;BME280;25173;50.430;18.926;2022-12-28T10:04:20;98826.97;;;7.78;58.38
39487;BME280;25173;50.430;18.926;2022-12-28T10:07:22;98821.41;;;7.73;58.03
39487;BME280;25173;50.430;18.926;2022-12-28T10:10:22;98818.69;;;7.73;58.19
39487;BME280;25173;50.430;18.926;2022-12-28T10:13:26;98805.81;;;7.80;58.04
39487;BME280;25173;50.430;18.926;2022-12-28T10:16:30;98811.16;;;7.75;57.71
39487;BME280;25173;50.430;18.926;2022-12-28T10:19:35;98805.50;;;7.76;57.91
39487;BME280;25173;50.430;18.926;2022-12-28T10:22:38;98796.31;;;7.77;57.82
39487;BME280;25173;50.430;18.926;2022-12-28T10:25:41;98786.50;;;7.76;57.78
39487;BME280;25173;50.430;18.926;2022-12-28T10:32:03;98774.59;;;7.77;57.73
39487;BME280;25173;50.430;18.926;2022-12-28T10:35:04;98754.66;;;7.84;57.87
39487;BME280;25173;50.430;18.926;2022-12-28T10:38:28;98752.03;;;7.89;57.64
39487;BME280;25173;50.430;18.926;2022-12-28T10:41:34;98753.34;;;7.86;57.33
39487;BME280;25173;50.430;18.926;2022-12-28T10:44:37;98750.53;;;7.81;57.35
39487;BME280;25173;50.430;18.926;2022-12-28T10:47:43;98743.81;;;7.84;57.48
39487;BME280;25173;50.430;18.926;2022-12-28T10:50:59;98725.28;;;7.92;57.56
39487;BME280;25173;50.430;18.926;2022-12-28T10:54:00;98717.53;;;7.84;57.02
39487;BME280;25173;50.430;18.926;2022-12-28T10:57:01;98714.53;;;7.86;57.30
39487;BME280;25173;50.430;18.926;2022-12-28T11:00:19;98713.84;;;7.90;56.93
39487;BME280;25173;50.430;18.926;2022-12-28T11:03:25;98717.22;;;7.97;57.05
39487;BME280;25173;50.430;18.926;2022-12-28T11:06:28;98716.22;;;8.03;56.89
39487;BME280;25173;50.430;18.926;2022-12-28T11:09:34;98706.78;;;8.06;56.63
39487;BME280;25173;50.430;18.926;2022-12-28T11:12:41;98703.25;;;8.05;56.54
39487;BME280;25173;50.430;18.926;2022-12-28T11:15:42;98694.72;;;8.13;56.66
39487;BME280;25173;50.430;18.926;2022-12-28T11:18:43;98690.03;;;8.26;56.66
39487;BME280;25173;50.430;18.926;2022-12-28T11:21:44;98677.63;;;8.30;56.26
39487;BME280;25173;50.430;18.926;2022-12-28T11:24:45;98678.88;;;8.39;56.11
39487;BME280;25173;50.430;18.926;2022-12-28T11:27:46;98678.72;;;8.45;56.09
39487;BME280;25173;50.430;18.926;2022-12-28T11:30:49;98667.00;;;8.62;55.82
39487;BME280;25173;50.430;18.926;2022-12-28T11:33:53;98670.84;;;8.82;55.71
39487;BME280;25173;50.430;18.926;2022-12-28T11:36:56;98658.09;;;9.05;55.53
39487;BME280;25173;50.430;18.926;2022-12-28T11:39:57;98659.00;;;9.32;55.27
39487;BME280;25173;50.430;18.926;2022-12-28T11:42:58;98651.66;;;9.54;54.88
39487;BME280;25173;50.430;18.926;2022-12-28T11:46:03;98645.59;;;9.74;54.60
39487;BME280;25173;50.430;18.926;2022-12-28T11:49:28;98649.34;;;9.95;53.72
39487;BME280;25173;50.430;18.926;2022-12-28T11:55:48;98633.16;;;10.42;53.13
39487;BME280;25173;50.430;18.926;2022-12-28T11:59:04;98627.84;;;10.62;52.66
39487;BME280;25173;50.430;18.926;2022-12-28T12:05:47;98615.44;;;10.81;51.82
39487;BME280;25173;50.430;18.926;2022-12-28T12:08:48;98614.69;;;10.96;48.78
39487;BME280;25173;50.430;18.926;2022-12-28T12:11:53;98600.50;;;10.94;52.10
39487;BME280;25173;50.430;18.926;2022-12-28T12:15:05;98598.91;;;11.03;52.13
39487;BME280;25173;50.430;18.926;2022-12-28T12:18:17;98603.88;;;11.11;51.60
39487;BME280;25173;50.430;18.926;2022-12-28T12:21:38;98594.56;;;11.07;51.11
39487;BME280;25173;50.430;18.926;2022-12-28T12:28:30;98575.38;;;10.82;51.01
39487;BME280;25173;50.430;18.926;2022-12-28T12:31:43;98579.94;;;10.66;51.12
39487;BME280;25173;50.430;18.926;2022-12-28T12:34:49;98574.13;;;10.52;51.52
39487;BME280;25173;50.430;18.926;2022-12-28T12:44:27;98562.09;;;10.06;49.56
39487;BME280;25173;50.430;18.926;2022-12-28T12:50:48;98561.25;;;9.69;51.27
39487;BME280;25173;50.430;18.926;2022-12-28T12:54:06;98554.84;;;9.53;51.03
39487;BME280;25173;50.430;18.926;2022-12-28T12:57:28;98561.69;;;9.56;51.53
39487;BME280;25173;50.430;18.926;2022-12-28T13:04:05;98528.22;;;9.55;51.24
39487;BME280;25173;50.430;18.926;2022-12-28T13:07:19;98527.41;;;9.55;51.44
39487;BME280;25173;50.430;18.926;2022-12-28T13:10:33;98518.34;;;9.49;51.22
39487;BME280;25173;50.430;18.926;2022-12-28T13:13:37;98505.22;;;9.41;51.70
39487;BME280;25173;50.430;18.926;2022-12-28T13:16:39;98495.72;;;9.39;51.73
39487;BME280;25173;50.430;18.926;2022-12-28T13:19:40;98511.50;;;9.42;52.01
39487;BME280;25173;50.430;18.926;2022-12-28T13:22:41;98503.75;;;9.55;51.94
39487;BME280;25173;50.430;18.926;2022-12-28T13:25:45;98507.38;;;9.66;51.55
39487;BME280;25173;50.430;18.926;2022-12-28T13:29:02;98498.97;;;9.72;51.48
39487;BME280;25173;50.430;18.926;2022-12-28T13:32:29;98506.41;;;9.82;50.83
39487;BME280;25173;50.430;18.926;2022-12-28T13:35:32;98510.06;;;9.66;51.22
39487;BME280;25173;50.430;18.926;2022-12-28T13:38:33;98500.94;;;9.45;51.57
39487;BME280;25173;50.430;18.926;2022-12-28T13:41:34;98499.09;;;9.24;51.81
39487;BME280;25173;50.430;18.926;2022-12-28T13:47:45;98500.03;;;9.08;52.27
39487;BME280;25173;50.430;18.926;2022-12-28T13:50:48;98514.06;;;9.00;52.28
39487;BME280;25173;50.430;18.926;2022-12-28T13:53:55;98487.09;;;8.93;52.30
39487;BME280;25173;50.430;18.926;2022-12-28T13:56:57;98485.16;;;8.88;52.56
39487;BME280;25173;50.430;18.926;2022-12-28T13:59:58;98493.31;;;8.88;52.69
39487;BME280;25173;50.430;18.926;2022-12-28T14:02:59;98500.88;;;8.86;52.84
39487;BME280;25173;50.430;18.926;2022-12-28T14:06:00;98507.00;;;8.77;53.03
39487;BME280;25173;50.430;18.926;2022-12-28T14:09:01;98506.81;;;8.83;52.97
39487;BME280;25173;50.430;18.926;2022-12-28T14:12:02;98506.81;;;8.83;53.19
39487;BME280;25173;50.430;18.926;2022-12-28T14:15:04;98509.03;;;8.86;53.32
39487;BME280;25173;50.430;18.926;2022-12-28T14:18:06;98494.31;;;8.82;53.04
39487;BME280;25173;50.430;18.926;2022-12-28T14:21:07;98501.00;;;8.75;53.11
39487;BME280;25173;50.430;18.926;2022-12-28T14:24:13;98494.66;;;8.64;53.20
39487;BME280;25173;50.430;18.926;2022-12-28T14:27:15;98497.22;;;8.54;53.22
39487;BME280;25173;50.430;18.926;2022-12-28T14:30:30;98480.69;;;8.34;53.26
39487;BME280;25173;50.430;18.926;2022-12-28T14:33:55;98472.31;;;8.18;53.44
39487;BME280;25173;50.430;18.926;2022-12-28T14:37:36;98475.06;;;8.02;53.69
39487;BME280;25173;50.430;18.926;2022-12-28T14:40:56;98478.47;;;7.92;54.03
39487;BME280;25173;50.430;18.926;2022-12-28T14:44:16;98459.28;;;7.77;54.28
39487;BME280;25173;50.430;18.926;2022-12-28T14:47:33;98457.06;;;7.74;54.46
39487;BME280;25173;50.430;18.926;2022-12-28T14:50:34;98449.97;;;7.73;54.57
39487;BME280;25173;50.430;18.926;2022-12-28T14:53:34;98455.34;;;7.68;54.71
39487;BME280;25173;50.430;18.926;2022-12-28T14:56:35;98469.25;;;7.55;54.84
39487;BME280;25173;50.430;18.926;2022-12-28T14:59:37;98456.41;;;7.50;55.14
39487;BME280;25173;50.430;18.926;2022-12-28T15:02:39;98460.69;;;7.46;55.33
39487;BME280;25173;50.430;18.926;2022-12-28T15:05:49;98464.47;;;7.45;55.16
39487;BME280;25173;50.430;18.926;2022-12-28T15:08:51;98452.56;;;7.46;55.37
39487;BME280;25173;50.430;18.926;2022-12-28T15:12:09;98448.53;;;7.49;55.52
39487;BME280;25173;50.430;18.926;2022-12-28T15:15:10;98449.03;;;7.46;55.44
39487;BME280;25173;50.430;18.926;2022-12-28T15:18:10;98433.75;;;7.39;55.48
39487;BME280;25173;50.430;18.926;2022-12-28T15:21:21;98436.88;;;7.31;55.79
39487;BME280;25173;50.430;18.926;2022-12-28T15:24:23;98438.78;;;7.31;55.79
39487;BME280;25173;50.430;18.926;2022-12-28T15:27:23;98434.06;;;7.26;55.86
39487;BME280;25173;50.430;18.926;2022-12-28T15:30:24;98426.44;;;7.23;55.96
39487;BME280;25173;50.430;18.926;2022-12-28T15:33:25;98431.28;;;7.21;55.97
39487;BME280;25173;50.430;18.926;2022-12-28T15:36:26;98423.91;;;7.17;56.24
39487;BME280;25173;50.430;18.926;2022-12-28T15:39:26;98425.88;;;7.21;56.07
39487;BME280;25173;50.430;18.926;2022-12-28T15:42:27;98421.28;;;7.22;56.08
39487;BME280;25173;50.430;18.926;2022-12-28T15:45:28;98413.38;;;7.20;56.20
39487;BME280;25173;50.430;18.926;2022-12-28T15:48:29;98425.88;;;7.21;56.25
39487;BME280;25173;50.430;18.926;2022-12-28T15:51:30;98414.78;;;7.23;56.44
39487;BME280;25173;50.430;18.926;2022-12-28T15:54:31;98413.97;;;7.22;56.40
39487;BME280;25173;50.430;18.926;2022-12-28T15:57:32;98416.69;;;7.22;56.46
39487;BME280;25173;50.430;18.926;2022-12-28T16:00:32;98409.13;;;7.24;56.51
39487;BME280;25173;50.430;18.926;2022-12-28T16:03:37;98397.78;;;7.27;56.61
39487;BME280;25173;50.430;18.926;2022-12-28T16:07:06;98398.63;;;7.28;56.53
39487;BME280;25173;50.430;18.926;2022-12-28T16:10:07;98402.66;;;7.25;56.65
39487;BME280;25173;50.430;18.926;2022-12-28T16:13:08;98403.97;;;7.23;56.68
39487;BME280;25173;50.430;18.926;2022-12-28T16:16:12;98405.38;;;7.25;56.79
39487;BME280;25173;50.430;18.926;2022-12-28T16:19:14;98399.13;;;7.25;56.73
39487;BME280;25173;50.430;18.926;2022-12-28T16:22:15;98407.25;;;7.25;56.97
39487;BME280;25173;50.430;18.926;2022-12-28T16:25:16;98394.53;;;7.25;56.68
39487;BME280;25173;50.430;18.926;2022-12-28T16:28:16;98392.13;;;7.29;56.81
39487;BME280;25173;50.430;18.926;2022-12-28T16:31:25;98382.34;;;7.28;56.87
39487;BME280;25173;50.430;18.926;2022-12-28T16:34:27;98389.19;;;7.30;56.77
39487;BME280;25173;50.430;18.926;2022-12-28T16:37:28;98393.78;;;7.30;56.95
39487;BME280;25173;50.430;18.926;2022-12-28T16:40:28;98384.81;;;7.29;56.67
39487;BME280;25173;50.430;18.926;2022-12-28T16:43:29;98379.09;;;7.26;56.65
39487;BME280;25173;50.430;18.926;2022-12-28T16:46:30;98379.91;;;7.26;56.74
39487;BME280;25173;50.430;18.926;2022-12-28T16:49:31;98386.97;;;7.27;56.79
39487;BME280;25173;50.430;18.926;2022-12-28T16:52:32;98382.94;;;7.30;56.77
39487;BME280;25173;50.430;18.926;2022-12-28T16:55:40;98390.25;;;7.29;56.79
39487;BME280;25173;50.430;18.926;2022-12-28T16:58:41;98376.13;;;7.27;56.69
39487;BME280;25173;50.430;18.926;2022-12-28T17:01:42;98387.78;;;7.28;56.65
39487;BME280;25173;50.430;18.926;2022-12-28T17:04:43;98382.88;;;7.25;56.89
39487;BME280;25173;50.430;18.926;2022-12-28T17:07:44;98380.66;;;7.22;56.80
39487;BME280;25173;50.430;18.926;2022-12-28T17:10:44;98378.75;;;7.22;56.94
39487;BME280;25173;50.430;18.926;2022-12-28T17:13:45;98390.41;;;7.23;56.81
39487;BME280;25173;50.430;18.926;2022-12-28T17:16:46;98390.72;;;7.26;56.83
39487;BME280;25173;50.430;18.926;2022-12-28T17:19:46;98391.31;;;7.28;56.88
39487;BME280;25173;50.430;18.926;2022-12-28T17:22:47;98394.03;;;7.28;56.83
39487;BME280;25173;50.430;18.926;2022-12-28T17:25:51;98382.94;;;7.30;56.94
39487;BME280;25173;50.430;18.926;2022-12-28T17:28:52;98385.66;;;7.30;56.80